createdAt,value
2018-05-14T00:00:05.854Z,1005.27
2018-05-14T00:05:01.462Z,1005.08
2018-05-14T00:09:57.386Z,1005.04
2018-05-14T00:14:53.733Z,1005.07
2018-05-14T00:19:49.650Z,1005.11
2018-05-14T00:24:45.218Z,1005.13
2018-05-14T00:29:41.336Z,1005.06
2018-05-14T00:34:37.240Z,1004.88
2018-05-14T00:39:34.140Z,1004.75
2018-05-14T00:44:29.719Z,1004.83
2018-05-14T00:49:25.618Z,1004.67
2018-05-14T00:54:21.607Z,1004.77
2018-05-14T00:59:17.550Z,1004.69
2018-05-14T01:04:14.821Z,1004.60
2018-05-14T01:09:10.798Z,1004.61
2018-05-14T01:14:07.762Z,1004.59
2018-05-14T01:19:03.264Z,1004.49
2018-05-14T01:23:59.099Z,1004.55
2018-05-14T01:28:55.903Z,1004.57
2018-05-14T01:33:51.565Z,1004.60
2018-05-14T01:38:48.451Z,1004.51
2018-05-14T01:43:43.950Z,1004.47
2018-05-14T01:48:39.750Z,1004.63
2018-05-14T01:53:35.851Z,1004.66
2018-05-14T01:58:31.438Z,1004.64
2018-05-14T02:03:27.000Z,1004.61
2018-05-14T02:08:23.758Z,1004.54
2018-05-14T02:13:19.476Z,1004.60
2018-05-14T02:18:15.496Z,1004.65
2018-05-14T02:23:10.803Z,1004.56
2018-05-14T02:28:06.940Z,1004.64
2018-05-14T02:33:02.770Z,1004.59
2018-05-14T02:37:58.433Z,1004.60
2018-05-14T02:42:54.793Z,1004.56
2018-05-14T02:47:50.551Z,1004.60
2018-05-14T02:52:46.589Z,1004.59
2018-05-14T02:57:42.265Z,1004.59
2018-05-14T03:02:38.501Z,1004.62
2018-05-14T03:07:34.152Z,1004.63
2018-05-14T03:12:31.376Z,1004.53
2018-05-14T03:17:27.822Z,1004.54
2018-05-14T03:22:23.352Z,1004.57
2018-05-14T03:27:19.487Z,1004.53
2018-05-14T03:32:15.155Z,1004.59
2018-05-14T03:37:11.990Z,1004.58
2018-05-14T03:42:08.021Z,1004.52
2018-05-14T03:47:03.802Z,1004.56
2018-05-14T03:51:59.409Z,1004.57
2018-05-14T03:56:55.267Z,1004.67
2018-05-14T04:01:51.820Z,1004.86
2018-05-14T04:06:47.676Z,1004.79
2018-05-14T04:11:44.525Z,1004.81
2018-05-14T04:16:42.632Z,1004.82
2018-05-14T04:21:38.628Z,1004.78
2018-05-14T04:26:34.766Z,1004.78
2018-05-14T04:31:30.436Z,1004.80
2018-05-14T04:36:26.435Z,1004.87
2018-05-14T04:41:22.271Z,1004.88
2018-05-14T04:46:17.962Z,1005.01
2018-05-14T04:51:13.895Z,1004.98
2018-05-14T04:56:09.577Z,1004.99
2018-05-14T05:01:05.410Z,1004.96
2018-05-14T05:06:01.019Z,1004.98
2018-05-14T05:11:01.053Z,1004.93
2018-05-14T05:15:55.956Z,1004.98
2018-05-14T05:20:52.755Z,1004.93
2018-05-14T05:25:52.123Z,1005.07
2018-05-14T05:30:48.065Z,1005.02
2018-05-14T05:35:43.951Z,1005.05
2018-05-14T05:40:40.873Z,1005.06
2018-05-14T05:45:36.849Z,1005.17
2018-05-14T05:50:34.011Z,1005.17
2018-05-14T05:55:29.613Z,1005.12
2018-05-14T06:00:25.674Z,1005.22
2018-05-14T06:05:22.591Z,1005.28
2018-05-14T06:10:19.498Z,1005.38
2018-05-14T06:15:15.826Z,1005.37
2018-05-14T06:20:12.151Z,1005.30
2018-05-14T06:25:09.209Z,1005.32
2018-05-14T06:30:05.223Z,1005.38
2018-05-14T06:35:01.958Z,1005.40
2018-05-14T06:39:57.684Z,1005.38
2018-05-14T06:44:53.373Z,1005.34
2018-05-14T06:49:50.078Z,1005.47
2018-05-14T06:54:46.482Z,1005.48
2018-05-14T06:59:42.125Z,1005.44
2018-05-14T07:04:38.108Z,1005.47
2018-05-14T07:09:33.889Z,1005.54
2018-05-14T07:14:30.107Z,1005.57
2018-05-14T07:19:26.141Z,1005.60
2018-05-14T07:24:22.112Z,1005.59
2018-05-14T07:29:18.363Z,1005.60
2018-05-14T07:34:14.183Z,1005.58
2018-05-14T07:39:11.479Z,1005.66
2018-05-14T07:44:06.889Z,1005.75
2018-05-14T07:49:03.383Z,1005.95
2018-05-14T07:54:02.182Z,1005.93
2018-05-14T07:59:00.794Z,1005.83
2018-05-14T08:03:58.739Z,1005.92
2018-05-14T08:08:55.746Z,1005.89
2018-05-14T08:13:53.432Z,1005.92
2018-05-14T08:18:49.595Z,1005.95
2018-05-14T08:23:46.173Z,1005.94
2018-05-14T08:28:43.102Z,1005.94
2018-05-14T08:33:39.808Z,1005.86
2018-05-14T08:38:37.445Z,1005.94
2018-05-14T08:43:34.545Z,1006.01
2018-05-14T08:48:30.128Z,1005.91
2018-05-14T08:53:24.482Z,1005.98
2018-05-14T08:58:19.649Z,1006.04
2018-05-14T09:03:16.687Z,1006.18
2018-05-14T09:08:12.660Z,1006.07
2018-05-14T09:13:08.359Z,1006.12
2018-05-14T09:18:07.979Z,1006.07
2018-05-14T09:23:03.874Z,1006.13
2018-05-14T09:28:00.505Z,1006.09
2018-05-14T09:32:57.105Z,1006.11
2018-05-14T09:37:53.217Z,1006.10
2018-05-14T09:42:49.440Z,1006.12
2018-05-14T09:47:45.557Z,1006.03
2018-05-14T09:52:41.901Z,1006.11
2018-05-14T09:57:38.927Z,1006.09
2018-05-14T10:02:34.372Z,1006.11
2018-05-14T10:07:31.329Z,1006.03
2018-05-14T10:12:27.601Z,1006.08
2018-05-14T10:17:23.512Z,1006.02
2018-05-14T10:22:19.656Z,1006.02
2018-05-14T10:27:16.333Z,1006.05
2018-05-14T10:32:13.503Z,1006.04
2018-05-14T10:37:09.852Z,1005.92
2018-05-14T10:42:06.131Z,1006.03
2018-05-14T10:47:02.541Z,1006.02
2018-05-14T10:51:59.625Z,1006.02
2018-05-14T10:56:56.086Z,1006.06
2018-05-14T11:01:52.022Z,1006.04
2018-05-14T11:06:48.705Z,1005.97
2018-05-14T11:11:46.223Z,1006.10
2018-05-14T11:16:43.064Z,1006.02
2018-05-14T11:21:44.017Z,1005.95
2018-05-14T11:26:39.503Z,1006.01
2018-05-14T11:31:37.322Z,1006.04
2018-05-14T11:36:33.599Z,1005.96
2018-05-14T11:41:30.185Z,1005.87
2018-05-14T11:46:27.035Z,1005.94
2018-05-14T11:51:22.728Z,1006.07
2018-05-14T11:56:18.698Z,1005.93
2018-05-14T12:01:15.742Z,1005.89
2018-05-14T12:06:12.689Z,1005.84
2018-05-14T12:11:09.048Z,1005.82
2018-05-14T12:16:06.141Z,1005.91
2018-05-14T12:21:02.027Z,1005.86
2018-05-14T12:25:57.964Z,1005.90
2018-05-14T12:30:54.031Z,1005.79
2018-05-14T12:35:50.472Z,1005.81
2018-05-14T12:40:46.377Z,1006.09
2018-05-14T12:45:41.444Z,1005.90
2018-05-14T12:50:36.471Z,1005.76
2018-05-14T12:55:30.735Z,1005.75
2018-05-14T13:00:28.399Z,1005.68
2018-05-14T13:05:25.977Z,1005.81
2018-05-14T13:10:21.708Z,1005.65
2018-05-14T13:15:17.226Z,1005.58
2018-05-14T13:20:12.818Z,1005.81
2018-05-14T13:25:09.459Z,1005.69
2018-05-14T13:30:04.644Z,1005.73
2018-05-14T13:35:01.323Z,1005.70
2018-05-14T13:39:57.471Z,1005.76
2018-05-14T13:44:54.290Z,1005.72
2018-05-14T13:49:48.967Z,1005.76
2018-05-14T13:54:45.131Z,1005.67
2018-05-14T13:59:41.011Z,1005.75
2018-05-14T14:04:36.590Z,1005.69
2018-05-14T14:09:33.664Z,1005.59
2018-05-14T14:14:29.985Z,1005.53
2018-05-14T14:19:25.152Z,1005.65
2018-05-14T14:24:20.801Z,1005.73
2018-05-14T14:29:16.404Z,1005.66
2018-05-14T14:34:12.167Z,1005.60
2018-05-14T14:39:08.333Z,1005.58
2018-05-14T14:44:04.151Z,1005.50
2018-05-14T14:49:00.063Z,1005.50
2018-05-14T14:53:55.826Z,1005.50
2018-05-14T14:58:52.222Z,1005.49
2018-05-14T15:03:49.240Z,1005.38
2018-05-14T15:08:44.974Z,1005.40
2018-05-14T15:13:41.597Z,1005.27
2018-05-14T15:18:37.819Z,1005.27
2018-05-14T15:23:34.102Z,1005.36
2018-05-14T15:28:30.132Z,1005.34
2018-05-14T15:33:26.145Z,1005.41
2018-05-14T15:38:22.052Z,1005.34
2018-05-14T15:43:17.996Z,1005.27
2018-05-14T15:48:15.094Z,1005.26
2018-05-14T15:53:10.942Z,1005.24
2018-05-14T15:58:08.005Z,1005.21
2018-05-14T16:03:03.773Z,1005.12
2018-05-14T16:08:00.904Z,1005.17
2018-05-14T16:12:56.532Z,1005.20
2018-05-14T16:17:53.268Z,1005.23
2018-05-14T16:22:49.096Z,1005.15
2018-05-14T16:27:45.150Z,1005.16
2018-05-14T16:32:41.227Z,1005.14
2018-05-14T16:37:38.159Z,1005.07
2018-05-14T16:42:33.667Z,1005.26
2018-05-14T16:47:30.471Z,1005.20
2018-05-14T16:52:25.932Z,1005.28
2018-05-14T16:57:23.170Z,1005.25
2018-05-14T17:02:18.600Z,1005.28
2018-05-14T17:07:14.334Z,1005.38
2018-05-14T17:12:10.533Z,1005.31
2018-05-14T17:17:07.429Z,1005.47
2018-05-14T17:22:03.294Z,1005.47
2018-05-14T17:27:00.254Z,1005.49
2018-05-14T17:31:56.834Z,1005.54
2018-05-14T17:36:53.376Z,1005.54
2018-05-14T17:41:48.662Z,1005.63
2018-05-14T17:46:45.844Z,1005.56
2018-05-14T17:51:41.798Z,1005.61
2018-05-14T17:56:37.731Z,1005.70
2018-05-14T18:01:33.525Z,1005.69
2018-05-14T18:06:29.377Z,1005.65
2018-05-14T18:11:25.263Z,1005.62
2018-05-14T18:16:21.034Z,1005.70
2018-05-14T18:21:16.997Z,1005.82
2018-05-14T18:26:13.045Z,1005.69
2018-05-14T18:31:09.800Z,1005.78
2018-05-14T18:36:06.636Z,1005.85
2018-05-14T18:41:02.095Z,1005.75
2018-05-14T18:45:58.860Z,1005.79
2018-05-14T18:50:54.428Z,1005.80
2018-05-14T18:55:50.368Z,1005.86
2018-05-14T19:00:49.502Z,1005.92
2018-05-14T19:05:44.616Z,1006.04
2018-05-14T19:10:41.215Z,1006.06
2018-05-14T19:15:36.655Z,1006.22
2018-05-14T19:20:32.527Z,1006.30
2018-05-14T19:25:28.223Z,1006.42
2018-05-14T19:30:25.561Z,1006.50
2018-05-14T19:35:21.149Z,1006.57
2018-05-14T19:40:16.700Z,1006.65
2018-05-14T19:45:12.557Z,1006.70
2018-05-14T19:50:08.623Z,1006.73
2018-05-14T19:55:05.358Z,1006.86
2018-05-14T20:00:00.990Z,1006.81
2018-05-14T20:04:56.591Z,1006.82
2018-05-14T20:09:53.773Z,1006.90
2018-05-14T20:14:49.488Z,1006.89
2018-05-14T20:19:45.756Z,1006.91
2018-05-14T20:24:41.571Z,1007.06
2018-05-14T20:29:37.300Z,1007.11
2018-05-14T20:34:34.711Z,1007.11
2018-05-14T20:39:30.760Z,1007.15
2018-05-14T20:44:27.545Z,1007.15
2018-05-14T20:49:23.893Z,1007.16
2018-05-14T20:54:20.352Z,1007.17
2018-05-14T20:59:15.781Z,1007.23
2018-05-14T21:04:12.548Z,1007.29
2018-05-14T21:09:09.060Z,1007.34
2018-05-14T21:14:04.716Z,1007.35
2018-05-14T21:19:00.775Z,1007.41
2018-05-14T21:23:56.713Z,1007.51
2018-05-14T21:28:53.569Z,1007.48
2018-05-14T21:33:50.152Z,1007.59
2018-05-14T21:38:45.681Z,1007.64
2018-05-14T21:43:41.741Z,1007.71
2018-05-14T21:48:38.634Z,1007.71
2018-05-14T21:53:34.277Z,1007.74
2018-05-14T21:58:30.992Z,1007.78
2018-05-14T22:03:27.365Z,1007.92
2018-05-14T22:08:22.952Z,1007.87
2018-05-14T22:13:19.161Z,1007.89
2018-05-14T22:18:15.037Z,1007.96
2018-05-14T22:23:10.896Z,1007.93
2018-05-14T22:28:06.544Z,1007.94
2018-05-14T22:33:02.213Z,1008.06
2018-05-14T22:37:57.986Z,1007.97
2018-05-14T22:42:53.771Z,1008.04
2018-05-14T22:47:50.644Z,1008.04
2018-05-14T22:52:46.338Z,1007.96
2018-05-14T22:57:42.959Z,1008.06
2018-05-14T23:02:38.294Z,1008.02
2018-05-14T23:07:35.704Z,1008.07
2018-05-14T23:12:32.333Z,1008.16
2018-05-14T23:17:28.280Z,1008.01
2018-05-14T23:22:24.171Z,1007.95
2018-05-14T23:27:20.202Z,1008.02
2018-05-14T23:32:16.057Z,1008.09
2018-05-14T23:37:11.716Z,1008.08
2018-05-14T23:42:08.296Z,1008.16
2018-05-14T23:47:04.779Z,1008.17
2018-05-14T23:52:00.260Z,1008.09
2018-05-14T23:56:57.214Z,1008.19
